Time;durP1;ratioP1;P1;durP2;ratioP2;P2;SDS_P1;SDS_P2;PMS_P1;PMS_P2;Temp;Humidity;BMP_temperature;BMP_pressure;BME280_temperature;BME280_humidity;BME280_pressure;Samples;Min_cycle;Max_cycle;Signal;HPM_P1;HPM_P2
2022/12/19 05:01:03;;;;;;;6.43;3.85;;;0.10;99.90;;;;;;5721144;23;20235;-69
2022/12/19 05:03:29;;;;;;;2.25;2.13;;;0.00;99.90;;;;;;4973248;28;20235;-69
2022/12/19 05:06:04;;;;;;;2.45;2.28;;;0.00;99.90;;;;;;4972384;28;20227;-69
2022/12/19 05:08:30;;;;;;;2.15;2.05;;;0.00;99.90;;;;;;4956404;28;20348;-68
2022/12/19 05:10:59;;;;;;;4.45;2.58;;;0.00;99.90;;;;;;4960671;28;20255;-68
2022/12/19 05:13:26;;;;;;;4.85;4.55;;;0.10;99.90;;;;;;4960579;28;20277;-68
2022/12/19 05:15:56;;;;;;;5.22;2.78;;;0.10;99.90;;;;;;4969054;23;20228;-70
2022/12/19 05:18:25;;;;;;;4.68;4.32;;;0.10;99.90;;;;;;4948043;29;20216;-69
2022/12/19 05:20:52;;;;;;;1.92;1.83;;;0.10;99.90;;;;;;4950916;29;20254;-70
2022/12/19 05:23:19;;;;;;;2.40;2.30;;;0.20;99.90;;;;;;4936583;29;20236;-70
2022/12/19 05:25:46;;;;;;;3.60;3.60;;;0.20;99.90;;;;;;4945336;28;20223;-70
2022/12/19 05:28:12;;;;;;;4.60;3.05;;;0.20;99.90;;;;;;4952447;29;20595;-70
2022/12/19 05:30:39;;;;;;;3.80;3.70;;;0.20;99.90;;;;;;4953426;29;20221;-70
2022/12/19 05:33:06;;;;;;;2.03;1.55;;;0.20;99.90;;;;;;4951933;29;20206;-70
2022/12/19 05:35:35;;;;;;;4.43;4.03;;;0.30;99.90;;;;;;4951829;28;20697;-69
2022/12/19 05:38:01;;;;;;;5.38;2.53;;;0.30;99.90;;;;;;4942707;29;20274;-69
2022/12/19 05:40:28;;;;;;;2.45;2.25;;;0.30;99.90;;;;;;4951428;29;20207;-69
2022/12/19 05:42:55;;;;;;;2.78;2.67;;;0.40;99.90;;;;;;4943810;29;20627;-68
2022/12/19 05:45:22;;;;;;;3.15;2.95;;;0.40;99.90;;;;;;4942837;28;20234;-68
2022/12/19 05:47:49;;;;;;;2.80;1.50;;;0.40;99.90;;;;;;4952784;29;20581;-69
2022/12/19 05:50:17;;;;;;;5.72;5.22;;;0.40;99.90;;;;;;4948442;29;20563;-69
2022/12/19 05:52:45;;;;;;;3.72;3.50;;;0.40;99.90;;;;;;4949277;29;20685;-69
2022/12/19 05:55:12;;;;;;;1.48;1.38;;;0.40;99.90;;;;;;4950644;28;20235;-68
2022/12/19 05:57:39;;;;;;;4.13;2.28;;;0.40;99.90;;;;;;4944028;28;20231;-68
2022/12/19 06:00:06;;;;;;;2.30;1.98;;;0.40;99.90;;;;;;4951424;29;20221;-68
2022/12/19 06:02:33;;;;;;;5.63;4.00;;;0.50;99.90;;;;;;4953098;29;20208;-68
2022/12/19 06:05:00;;;;;;;6.20;2.95;;;0.50;99.90;;;;;;4943090;29;20232;-68
2022/12/19 06:07:27;;;;;;;1.55;1.52;;;0.50;99.90;;;;;;4949963;29;20211;-69
2022/12/19 06:09:55;;;;;;;2.33;2.13;;;0.50;99.90;;;;;;4944416;29;20213;-70
2022/12/19 06:12:21;;;;;;;4.88;3.80;;;0.60;99.90;;;;;;4954368;29;20208;-70
2022/12/19 06:14:48;;;;;;;2.35;2.35;;;0.60;99.90;;;;;;4953618;28;20299;-70
2022/12/19 06:17:15;;;;;;;2.15;2.15;;;0.60;99.90;;;;;;4944694;29;20204;-70
2022/12/19 06:19:41;;;;;;;2.85;2.75;;;0.70;99.90;;;;;;4957534;29;20634;-70
2022/12/19 06:22:08;;;;;;;2.08;1.88;;;0.70;99.90;;;;;;4958211;29;20204;-70
2022/12/19 06:24:35;;;;;;;4.75;4.32;;;0.70;99.90;;;;;;4958248;29;20299;-69
2022/12/19 06:27:03;;;;;;;3.60;3.13;;;0.70;99.90;;;;;;4950380;29;20632;-68
2022/12/19 06:29:30;;;;;;;3.83;2.42;;;0.70;99.90;;;;;;4952470;29;20212;-69
2022/12/19 06:31:57;;;;;;;2.17;2.00;;;0.70;99.90;;;;;;4946736;29;20239;-69
2022/12/19 06:34:23;;;;;;;3.45;3.30;;;0.80;99.90;;;;;;4946672;29;20671;-68
2022/12/19 06:36:50;;;;;;;6.78;2.83;;;0.80;99.90;;;;;;4955111;28;20251;-68
2022/12/19 06:39:17;;;;;;;2.17;2.00;;;0.80;99.90;;;;;;4948055;29;20227;-68
2022/12/19 06:44:31;;;;;;;4.38;4.28;;;0.90;99.90;;;;;;4946631;29;20223;-68
2022/12/19 06:46:58;;;;;;;0.75;0.75;;;1.00;99.90;;;;;;4954692;28;20236;-68
2022/12/19 06:49:25;;;;;;;4.00;3.38;;;1.10;99.90;;;;;;4955494;29;20219;-68
2022/12/19 06:51:52;;;;;;;3.13;2.92;;;1.10;99.90;;;;;;4952919;29;20662;-69
2022/12/19 06:54:18;;;;;;;2.58;2.50;;;1.10;99.90;;;;;;4950573;29;20224;-68
2022/12/19 06:56:45;;;;;;;2.70;2.60;;;1.10;99.90;;;;;;4953868;28;20295;-68
2022/12/19 06:59:13;;;;;;;4.25;4.00;;;1.10;99.90;;;;;;4946553;29;20631;-69
2022/12/19 07:01:53;;;;;;;1.70;1.70;;;1.10;99.90;;;;;;4950389;29;20205;-70
2022/12/19 07:04:24;;;;;;;3.85;3.08;;;1.10;99.90;;;;;;4937857;29;20307;-69
2022/12/19 07:06:51;;;;;;;1.65;1.52;;;1.10;99.90;;;;;;4950330;28;20228;-68
2022/12/19 07:09:17;;;;;;;2.65;2.47;;;1.10;99.90;;;;;;4947501;29;20657;-68
2022/12/19 07:11:44;;;;;;;2.88;2.78;;;1.10;99.90;;;;;;4952156;29;20595;-68
2022/12/19 07:14:11;;;;;;;4.25;3.83;;;1.10;99.90;;;;;;4952451;29;20215;-69
2022/12/19 07:16:38;;;;;;;1.88;1.77;;;1.10;99.90;;;;;;4941595;29;20329;-68
2022/12/19 07:19:06;;;;;;;2.47;2.47;;;1.20;99.90;;;;;;4952124;29;20215;-67
2022/12/19 07:21:33;;;;;;;3.83;3.53;;;1.20;99.90;;;;;;4951522;29;20198;-69
2022/12/19 07:24:00;;;;;;;2.33;2.22;;;1.20;99.90;;;;;;4952565;29;20212;-68
2022/12/19 07:26:27;;;;;;;3.25;1.85;;;1.20;99.90;;;;;;4947542;28;20761;-69
2022/12/19 07:28:54;;;;;;;2.50;2.42;;;1.30;99.90;;;;;;4949733;29;20208;-67
2022/12/19 07:31:21;;;;;;;7.05;3.13;;;1.30;99.90;;;;;;4946968;29;20314;-69
2022/12/19 07:33:48;;;;;;;4.60;3.15;;;1.30;99.90;;;;;;4954314;29;20212;-67
2022/12/19 07:36:16;;;;;;;2.90;2.67;;;1.30;99.90;;;;;;4946530;29;20272;-69
2022/12/19 07:38:43;;;;;;;1.13;1.13;;;1.30;99.90;;;;;;4953495;29;20221;-69
2022/12/19 07:41:09;;;;;;;2.35;2.25;;;1.30;99.90;;;;;;4953364;29;20212;-68
2022/12/19 07:43:36;;;;;;;5.88;3.47;;;1.30;99.90;;;;;;4943582;29;20208;-69
2022/12/19 07:46:03;;;;;;;4.30;4.10;;;1.30;99.90;;;;;;4945140;28;20256;-69
2022/12/19 07:48:31;;;;;;;2.13;2.13;;;1.30;99.90;;;;;;4949498;29;20580;-69
2022/12/19 07:50:57;;;;;;;4.05;3.92;;;1.30;99.90;;;;;;4947627;29;20217;-68
2022/12/19 07:53:27;;;;;;;2.75;1.65;;;1.20;99.90;;;;;;4953877;29;20296;-69
2022/12/19 07:55:54;;;;;;;2.55;2.15;;;1.20;99.90;;;;;;4953638;28;20610;-68
2022/12/19 07:58:21;;;;;;;2.90;2.45;;;1.20;99.90;;;;;;4950945;29;20209;-69
2022/12/19 08:00:54;;;;;;;5.80;4.95;;;1.30;99.90;;;;;;4951060;29;20213;-68
2022/12/19 08:03:20;;;;;;;2.60;1.75;;;1.30;99.90;;;;;;4954449;29;20210;-68
2022/12/19 08:05:47;;;;;;;1.95;1.88;;;1.30;99.90;;;;;;4950297;29;20233;-69
2022/12/19 08:08:14;;;;;;;5.15;4.63;;;1.30;99.90;;;;;;4945070;29;20299;-68
2022/12/19 08:10:42;;;;;;;3.10;3.08;;;1.30;99.90;;;;;;4945654;29;20637;-70
2022/12/19 08:13:09;;;;;;;2.22;2.17;;;1.30;99.90;;;;;;4950130;29;20224;-70
2022/12/19 08:15:36;;;;;;;4.28;3.92;;;1.30;99.90;;;;;;4952641;29;20666;-69
2022/12/19 08:18:03;;;;;;;3.90;3.63;;;1.30;99.90;;;;;;4949211;29;20205;-68
2022/12/19 08:20:29;;;;;;;3.40;2.92;;;1.30;99.90;;;;;;4944446;29;20310;-67
2022/12/19 08:22:56;;;;;;;3.15;2.95;;;1.30;99.90;;;;;;4949654;28;20645;-69
2022/12/19 08:25:23;;;;;;;1.95;1.48;;;1.40;99.90;;;;;;4947347;28;20221;-70
2022/12/19 08:27:51;;;;;;;2.83;2.05;;;1.40;99.90;;;;;;4948278;28;20247;-69
2022/12/19 08:30:18;;;;;;;2.17;2.00;;;1.40;99.90;;;;;;4946755;28;20209;-69
2022/12/19 08:32:45;;;;;;;1.85;1.85;;;1.50;99.90;;;;;;4945199;29;20664;-69
2022/12/19 08:35:12;;;;;;;6.07;3.67;;;1.50;99.90;;;;;;4944992;28;20252;-67
2022/12/19 08:37:39;;;;;;;2.90;2.42;;;1.50;99.90;;;;;;4953040;28;20205;-68
2022/12/19 08:40:07;;;;;;;3.33;2.67;;;1.50;99.90;;;;;;4950136;28;20252;-69
2022/12/19 08:42:34;;;;;;;3.67;3.47;;;1.60;99.90;;;;;;4951765;29;20297;-69
2022/12/19 08:45:02;;;;;;;5.10;2.60;;;1.60;99.90;;;;;;4948209;28;20229;-68
2022/12/19 08:47:28;;;;;;;4.53;3.92;;;1.60;99.90;;;;;;4941050;29;20201;-68
2022/12/19 08:49:55;;;;;;;6.20;5.60;;;1.60;99.90;;;;;;4944447;28;20220;-69
2022/12/19 08:52:22;;;;;;;2.97;2.22;;;1.60;99.90;;;;;;4944362;28;20293;-68
2022/12/19 08:54:49;;;;;;;2.70;2.50;;;1.60;99.90;;;;;;4944347;28;20209;-68
2022/12/19 08:57:15;;;;;;;4.22;4.03;;;1.60;99.90;;;;;;4948270;28;20720;-70
2022/12/19 08:59:42;;;;;;;5.68;4.22;;;1.60;99.90;;;;;;4949406;29;20686;-69
2022/12/19 09:02:10;;;;;;;6.45;4.30;;;1.60;99.90;;;;;;4946037;28;20206;-70
2022/12/19 09:04:37;;;;;;;2.28;1.98;;;1.70;99.90;;;;;;4939199;28;20301;-70
2022/12/19 09:07:04;;;;;;;4.93;2.60;;;1.70;99.90;;;;;;4948107;28;20225;-70
2022/12/19 09:09:31;;;;;;;5.53;3.65;;;1.70;99.90;;;;;;4946286;28;20269;-70
2022/12/19 09:11:57;;;;;;;1.90;1.80;;;1.70;99.90;;;;;;4950012;28;20308;-70
2022/12/19 09:14:24;;;;;;;1.83;1.73;;;1.70;99.90;;;;;;4950745;29;20213;-69
2022/12/19 09:16:51;;;;;;;5.35;3.55;;;1.70;99.90;;;;;;4949559;28;20784;-70
2022/12/19 09:19:19;;;;;;;2.50;1.95;;;1.70;99.90;;;;;;4939518;29;20577;-69
2022/12/19 09:21:45;;;;;;;2.33;2.03;;;1.80;99.90;;;;;;4949202;29;20208;-69
2022/12/19 09:24:12;;;;;;;4.47;4.07;;;1.80;99.90;;;;;;4951195;29;20209;-69
2022/12/19 09:26:40;;;;;;;6.55;6.07;;;1.80;99.90;;;;;;4949130;29;20619;-69
2022/12/19 09:29:08;;;;;;;4.43;3.25;;;1.80;99.90;;;;;;4951665;29;20219;-69
2022/12/19 09:31:34;;;;;;;3.38;2.60;;;1.80;99.90;;;;;;4949862;29;20579;-69
2022/12/19 09:34:01;;;;;;;3.08;2.88;;;1.80;99.90;;;;;;4946042;29;20206;-70
2022/12/19 09:36:29;;;;;;;3.00;2.83;;;1.80;99.90;;;;;;4943769;28;20324;-69
2022/12/19 09:38:58;;;;;;;3.35;3.15;;;1.80;99.90;;;;;;4946642;29;20680;-71
2022/12/19 09:41:42;;;;;;;3.70;1.55;;;1.80;99.90;;;;;;4947374;29;20265;-70
2022/12/19 09:44:20;;;;;;;2.10;2.00;;;1.90;99.90;;;;;;4944517;29;20698;-69
2022/12/19 09:46:50;;;;;;;2.17;2.03;;;2.00;99.90;;;;;;4951654;28;20739;-70
2022/12/19 09:49:19;;;;;;;4.30;3.88;;;2.00;99.90;;;;;;4945784;28;20210;-70
2022/12/19 09:51:53;;;;;;;7.20;4.50;;;2.00;99.90;;;;;;4944406;29;20574;-70
2022/12/19 09:54:25;;;;;;;4.72;4.43;;;2.00;99.90;;;;;;4950195;29;20585;-70
2022/12/19 09:56:57;;;;;;;6.00;5.20;;;2.10;99.90;;;;;;4948690;28;20240;-70
2022/12/19 09:59:29;;;;;;;5.80;5.45;;;2.10;99.90;;;;;;4948044;29;20312;-71
2022/12/19 10:02:01;;;;;;;4.00;3.70;;;2.10;99.90;;;;;;4948585;29;20213;-70
2022/12/19 10:04:30;;;;;;;5.18;4.68;;;2.10;99.90;;;;;;4947050;29;20224;-70
2022/12/19 10:06:58;;;;;;;2.47;2.47;;;2.20;99.90;;;;;;4951861;28;20234;-70
2022/12/19 10:09:32;;;;;;;3.38;3.20;;;2.20;99.90;;;;;;4946124;29;20236;-70
2022/12/19 10:12:12;;;;;;;9.50;3.42;;;2.20;99.90;;;;;;4951030;29;20217;-70
2022/12/19 10:14:54;;;;;;;2.40;2.13;;;2.30;99.90;;;;;;4947172;29;20231;-70
2022/12/19 10:17:29;;;;;;;4.07;3.78;;;2.30;99.90;;;;;;4949116;29;20665;-69
2022/12/19 10:20:13;;;;;;;5.93;5.15;;;2.30;99.90;;;;;;4951148;29;20219;-69
2022/12/19 10:22:51;;;;;;;2.42;2.33;;;2.40;99.90;;;;;;4950952;29;20236;-69
2022/12/19 10:25:28;;;;;;;5.40;5.00;;;2.40;99.90;;;;;;4947046;29;20252;-69
2022/12/19 10:28:00;;;;;;;4.53;3.90;;;2.40;99.90;;;;;;4950159;28;20380;-69
2022/12/19 10:30:30;;;;;;;4.95;2.88;;;2.50;99.90;;;;;;4934934;29;20209;-70
2022/12/19 10:33:05;;;;;;;3.45;1.95;;;2.50;99.90;;;;;;4944774;29;20235;-70
2022/12/19 10:35:34;;;;;;;6.22;5.35;;;2.60;99.90;;;;;;4939077;29;20902;-70
2022/12/19 10:38:15;;;;;;;10.70;7.90;;;2.60;99.90;;;;;;4936072;29;20230;-70
2022/12/19 10:40:45;;;;;;;4.13;3.90;;;2.60;99.90;;;;;;4938217;29;20201;-70
2022/12/19 10:43:24;;;;;;;5.78;4.05;;;2.70;99.90;;;;;;4948225;29;20209;-70
2022/12/19 10:45:57;;;;;;;8.23;5.95;;;2.70;99.90;;;;;;4944443;28;20233;-70
2022/12/19 10:48:24;;;;;;;4.35;3.60;;;2.80;99.90;;;;;;4950735;28;20209;-70
2022/12/19 10:50:51;;;;;;;7.03;5.10;;;2.80;99.90;;;;;;4950070;28;20205;-69
2022/12/19 10:53:27;;;;;;;6.03;4.57;;;2.80;99.90;;;;;;4946892;28;20206;-69
2022/12/19 10:55:55;;;;;;;7.60;3.75;;;2.80;99.90;;;;;;4941972;28;20260;-69
2022/12/19 10:58:25;;;;;;;8.52;4.90;;;2.90;99.90;;;;;;4944316;29;20201;-70
2022/12/19 11:01:11;;;;;;;3.63;3.33;;;2.90;99.90;;;;;;4950313;28;20220;-70
2022/12/19 11:03:40;;;;;;;5.05;4.65;;;2.90;99.90;;;;;;4952789;28;20206;-69
2022/12/19 11:06:41;;;;;;;7.43;6.80;;;3.00;99.90;;;;;;4950210;28;20224;-70
2022/12/19 11:09:30;;;;;;;5.30;3.85;;;2.90;99.90;;;;;;4951926;29;20668;-69
2022/12/19 11:12:00;;;;;;;4.82;3.92;;;3.00;99.90;;;;;;4942832;28;20212;-69
2022/12/19 11:14:30;;;;;;;2.47;2.38;;;3.00;99.90;;;;;;4951558;29;20244;-70
2022/12/19 11:16:57;;;;;;;4.10;3.70;;;3.00;99.90;;;;;;4953694;28;20321;-70
2022/12/19 11:19:30;;;;;;;4.70;4.50;;;3.00;99.90;;;;;;4950553;28;20219;-69
2022/12/19 11:22:00;;;;;;;6.32;4.75;;;3.00;99.90;;;;;;4944063;29;20750;-69
2022/12/19 11:24:35;;;;;;;8.18;5.28;;;3.10;99.90;;;;;;4950917;28;20228;-68
2022/12/19 11:27:02;;;;;;;6.40;4.15;;;3.10;99.90;;;;;;4951583;28;20225;-67
2022/12/19 11:29:43;;;;;;;3.75;3.40;;;3.20;99.90;;;;;;4949847;28;20218;-68
2022/12/19 11:32:31;;;;;;;11.15;4.88;;;3.20;99.90;;;;;;4952177;29;20221;-69
2022/12/19 11:35:01;;;;;;;5.38;5.07;;;3.20;99.90;;;;;;4946667;28;20205;-73
2022/12/19 11:37:37;;;;;;;12.00;6.72;;;3.20;99.90;;;;;;4946526;28;20299;-70
2022/12/19 11:40:14;;;;;;;4.93;4.45;;;3.30;99.90;;;;;;4953212;29;20209;-71
2022/12/19 11:42:49;;;;;;;8.05;7.05;;;3.30;99.90;;;;;;4946344;29;20209;-69
2022/12/19 11:45:20;;;;;;;8.07;4.25;;;3.30;99.90;;;;;;4952072;28;20232;-66
2022/12/19 11:47:52;;;;;;;5.63;5.13;;;3.40;99.90;;;;;;4954638;28;20193;-66
2022/12/19 11:50:25;;;;;;;13.75;7.97;;;3.40;99.90;;;;;;4944878;29;20210;-67
2022/12/19 11:52:58;;;;;;;10.02;4.40;;;3.50;99.90;;;;;;4950290;28;20210;-65
2022/12/19 11:55:32;;;;;;;5.57;5.18;;;3.50;99.90;;;;;;4947040;29;20240;-63
2022/12/19 11:57:59;;;;;;;6.43;6.03;;;3.50;99.90;;;;;;4948716;28;20229;-67
2022/12/19 12:00:25;;;;;;;8.80;5.78;;;3.60;99.90;;;;;;4950803;29;20201;-66
2022/12/19 12:03:28;;;;;;;7.35;5.18;;;3.60;99.90;;;;;;4948171;28;20217;-71
2022/12/19 12:05:57;;;;;;;10.32;5.60;;;3.70;99.90;;;;;;4938316;29;20604;-69
2022/12/19 12:09:02;;;;;;;6.97;6.07;;;3.70;99.90;;;;;;4952706;28;20279;-68
2022/12/19 12:11:38;;;;;;;6.05;5.28;;;3.70;99.90;;;;;;4916534;28;20284;-70
2022/12/19 12:14:15;;;;;;;4.57;3.00;;;3.70;99.90;;;;;;4946818;28;20206;-69
2022/12/19 12:17:05;;;;;;;13.02;7.00;;;3.70;99.90;;;;;;4950155;28;20266;-68
2022/12/19 12:19:51;;;;;;;4.03;3.55;;;3.70;99.90;;;;;;4951081;29;20253;-68
2022/12/19 12:22:35;;;;;;;5.15;3.90;;;3.80;99.90;;;;;;4949096;28;20924;-68
2022/12/19 12:25:16;;;;;;;4.40;4.20;;;3.80;99.90;;;;;;4939412;28;20257;-70
2022/12/19 12:27:55;;;;;;;2.65;2.50;;;3.80;99.90;;;;;;4948878;28;20209;-70
2022/12/19 12:30:22;;;;;;;7.53;4.07;;;3.80;99.90;;;;;;4947903;28;20280;-70
2022/12/19 12:33:03;;;;;;;5.10;4.35;;;3.80;99.90;;;;;;4950490;29;20217;-68
2022/12/19 12:35:35;;;;;;;8.15;6.82;;;3.90;99.90;;;;;;4936700;29;20252;-68
2022/12/19 12:38:18;;;;;;;11.98;5.45;;;3.90;99.90;;;;;;4942086;29;20382;-68
2022/12/19 12:41:11;;;;;;;7.82;6.43;;;3.90;99.90;;;;;;4947550;29;20277;-68
2022/12/19 12:43:50;;;;;;;4.43;3.45;;;4.00;99.90;;;;;;4947699;29;20209;-67
2022/12/19 12:46:21;;;;;;;2.97;2.88;;;3.90;99.90;;;;;;4948849;28;20240;-67
2022/12/19 12:48:53;;;;;;;4.55;4.25;;;4.00;99.90;;;;;;4943705;29;20305;-68
2022/12/19 12:51:21;;;;;;;5.13;4.65;;;4.00;99.90;;;;;;4950577;29;20213;-67
2022/12/19 12:53:49;;;;;;;3.45;3.28;;;4.00;99.90;;;;;;4950476;29;20229;-68
2022/12/19 12:56:18;;;;;;;4.32;4.00;;;4.00;99.90;;;;;;4949756;28;20260;-69
2022/12/19 12:59:18;;;;;;;3.72;3.53;;;4.00;99.90;;;;;;4939125;29;20709;-68
2022/12/19 13:01:51;;;;;;;5.55;5.15;;;4.00;99.90;;;;;;4943399;28;20324;-67
2022/12/19 13:04:27;;;;;;;4.70;4.47;;;4.10;99.90;;;;;;4955814;28;20693;-68
2022/12/19 13:07:27;;;;;;;4.65;4.20;;;4.20;99.90;;;;;;4942503;29;20362;-69
2022/12/19 13:10:06;;;;;;;3.15;2.90;;;4.10;99.90;;;;;;4931414;29;20822;-68
2022/12/19 13:15:38;;;;;;;4.10;3.45;;;4.10;99.90;;;;;;4943786;28;20272;-68
2022/12/19 13:18:34;;;;;;;4.45;4.13;;;4.10;99.90;;;;;;4949659;28;20297;-69
2022/12/19 13:21:03;;;;;;;4.38;2.95;;;4.20;99.90;;;;;;4949342;28;20306;-67
2022/12/19 13:23:55;;;;;;;3.35;3.15;;;4.20;99.90;;;;;;4948031;28;20261;-68
2022/12/19 13:26:46;;;;;;;7.30;4.15;;;4.20;99.90;;;;;;4944267;28;20233;-69
2022/12/19 13:29:52;;;;;;;6.22;4.63;;;4.30;99.90;;;;;;4946018;28;20213;-68
2022/12/19 13:32:21;;;;;;;2.97;2.88;;;4.30;99.90;;;;;;4961528;29;20287;-68
2022/12/19 13:34:56;;;;;;;4.80;3.70;;;4.40;99.90;;;;;;4963161;28;20210;-67
2022/12/19 13:37:28;;;;;;;6.88;5.05;;;4.50;99.90;;;;;;4958446;29;20226;-70
2022/12/19 13:40:05;;;;;;;3.42;2.85;;;4.50;99.90;;;;;;4963392;28;20213;-70
2022/12/19 13:45:24;;;;;;;6.03;5.60;;;4.60;99.90;;;;;;4952695;28;20281;-68
2022/12/19 13:47:55;;;;;;;1.73;1.73;;;4.60;99.90;;;;;;4952843;29;20851;-69
2022/12/19 13:50:28;;;;;;;5.05;4.65;;;4.70;99.90;;;;;;4945334;29;20209;-68
2022/12/19 13:52:55;;;;;;;6.28;5.70;;;4.70;99.90;;;;;;4944869;29;20689;-68
2022/12/19 13:55:22;;;;;;;4.13;3.83;;;4.70;99.90;;;;;;4951197;28;20237;-70
2022/12/19 13:57:52;;;;;;;5.20;4.80;;;4.70;99.90;;;;;;4951557;29;20229;-66
2022/12/19 14:00:22;;;;;;;11.95;8.05;;;4.80;99.90;;;;;;4947940;28;20205;-69
2022/12/19 14:02:53;;;;;;;4.68;4.18;;;4.80;99.90;;;;;;4951012;29;20297;-68
2022/12/19 14:05:24;;;;;;;9.95;6.78;;;4.80;99.90;;;;;;4943528;28;20292;-68
2022/12/19 14:07:52;;;;;;;12.38;6.78;;;4.80;99.90;;;;;;4948840;29;20213;-68
2022/12/19 14:10:22;;;;;;;10.38;5.68;;;4.80;99.90;;;;;;4948604;28;20672;-68
2022/12/19 14:15:36;;;;;;;3.47;3.30;;;4.80;99.90;;;;;;4948599;28;20287;-70
2022/12/19 14:18:18;;;;;;;6.28;5.50;;;4.90;99.90;;;;;;4950617;29;20232;-68
2022/12/19 14:20:48;;;;;;;3.47;3.45;;;4.90;99.90;;;;;;4939315;29;20281;-68
2022/12/19 14:23:15;;;;;;;4.15;3.13;;;4.90;99.90;;;;;;4943718;29;20292;-70
2022/12/19 14:25:45;;;;;;;11.15;5.63;;;4.90;99.90;;;;;;4939494;29;20230;-67
2022/12/19 14:28:17;;;;;;;11.85;8.48;;;4.90;99.90;;;;;;4953413;28;20527;-68
2022/12/19 14:30:46;;;;;;;4.72;4.40;;;4.90;99.90;;;;;;4947360;28;20215;-69
2022/12/19 14:33:17;;;;;;;5.55;5.15;;;5.00;99.90;;;;;;4940417;29;20274;-67
2022/12/19 14:35:47;;;;;;;3.45;2.95;;;5.00;99.90;;;;;;4948590;28;20683;-69
2022/12/19 14:38:17;;;;;;;5.57;4.60;;;5.00;99.90;;;;;;4946705;29;20234;-69
2022/12/19 14:40:43;;;;;;;5.10;4.70;;;5.00;99.90;;;;;;4951183;29;20205;-69
2022/12/19 14:46:28;;;;;;;9.98;5.82;;;5.00;99.90;;;;;;4949742;29;20237;-69
2022/12/19 14:48:58;;;;;;;6.93;6.28;;;5.00;99.90;;;;;;4902024;29;20711;-70
2022/12/19 14:51:28;;;;;;;9.07;8.20;;;5.00;99.90;;;;;;4950219;29;20207;-68
2022/12/19 14:54:15;;;;;;;8.90;4.75;;;5.10;99.90;;;;;;4939802;29;20207;-69
2022/12/19 14:56:45;;;;;;;5.88;5.30;;;5.10;99.90;;;;;;4949675;29;20286;-69
2022/12/19 14:59:27;;;;;;;6.47;5.95;;;5.10;99.90;;;;;;4953021;28;20579;-69
2022/12/19 15:01:58;;;;;;;7.63;7.10;;;5.10;99.90;;;;;;4967900;28;20229;-69
2022/12/19 15:04:30;;;;;;;4.57;4.15;;;5.10;99.90;;;;;;4943665;29;20204;-69
2022/12/19 15:06:59;;;;;;;3.85;3.55;;;5.10;99.90;;;;;;4938018;29;20708;-68
2022/12/19 15:09:27;;;;;;;7.95;5.72;;;5.20;99.90;;;;;;4949932;29;20218;-69
2022/12/19 15:14:43;;;;;;;7.25;6.55;;;5.20;99.90;;;;;;4948471;29;20345;-69
2022/12/19 15:17:19;;;;;;;5.90;4.05;;;5.20;99.90;;;;;;4959405;28;20602;-67
2022/12/19 15:19:47;;;;;;;12.88;8.73;;;5.30;99.90;;;;;;4943729;29;20569;-70
2022/12/19 15:22:14;;;;;;;6.47;4.30;;;5.30;99.90;;;;;;4945488;29;20274;-68
2022/12/19 15:24:41;;;;;;;7.63;6.88;;;5.30;99.90;;;;;;4949299;28;20202;-69
2022/12/19 15:27:13;;;;;;;8.88;5.63;;;5.30;99.90;;;;;;4950498;28;20326;-68
2022/12/19 15:29:41;;;;;;;9.43;5.57;;;5.40;99.90;;;;;;4951202;28;20530;-68
2022/12/19 15:32:13;;;;;;;8.50;5.18;;;5.40;99.90;;;;;;4943054;28;20203;-71
2022/12/19 15:34:41;;;;;;;11.75;9.30;;;5.50;99.90;;;;;;4946473;28;20304;-69
2022/12/19 15:37:11;;;;;;;14.98;7.82;;;5.60;99.90;;;;;;4951934;28;20237;-69
2022/12/19 15:39:38;;;;;;;6.72;5.35;;;5.60;99.90;;;;;;4953165;28;20685;-68
2022/12/19 15:42:06;;;;;;;11.25;5.60;;;5.60;99.90;;;;;;4951716;28;20206;-68
2022/12/19 15:44:34;;;;;;;13.52;5.30;;;5.60;99.90;;;;;;4957948;28;20664;-70
2022/12/19 15:47:02;;;;;;;7.45;6.07;;;5.60;99.90;;;;;;4948655;28;20232;-69
2022/12/19 15:49:30;;;;;;;7.18;6.10;;;5.60;99.90;;;;;;4949044;28;20215;-69
2022/12/19 15:51:56;;;;;;;8.23;7.57;;;5.60;99.90;;;;;;4953091;28;20222;-67
2022/12/19 15:54:24;;;;;;;9.27;5.32;;;5.60;99.90;;;;;;4953379;28;20209;-69
2022/12/19 15:56:53;;;;;;;10.60;5.00;;;5.60;99.90;;;;;;4948919;28;20226;-69
2022/12/19 15:59:27;;;;;;;5.53;5.18;;;5.60;99.90;;;;;;4958394;28;20289;-67
2022/12/19 16:01:55;;;;;;;11.23;7.63;;;5.60;99.90;;;;;;4950001;29;20206;-70
2022/12/19 16:04:23;;;;;;;7.10;4.43;;;5.60;99.90;;;;;;4941289;28;20208;-70
2022/12/19 16:06:49;;;;;;;5.15;4.10;;;5.60;99.90;;;;;;4942123;28;20674;-70
2022/12/19 16:09:21;;;;;;;5.45;4.28;;;5.60;99.90;;;;;;4950141;28;20210;-70
2022/12/19 16:11:49;;;;;;;10.63;6.63;;;5.60;99.90;;;;;;4940921;28;20721;-70
2022/12/19 16:14:16;;;;;;;9.02;6.32;;;5.60;99.90;;;;;;4954705;28;20691;-70
2022/12/19 16:16:47;;;;;;;18.75;8.38;;;5.70;99.90;;;;;;4961541;28;20242;-69
2022/12/19 16:19:24;;;;;;;9.05;6.05;;;5.70;99.90;;;;;;4936079;28;20222;-70
2022/12/19 16:21:51;;;;;;;9.10;4.50;;;5.70;99.90;;;;;;4952895;28;20213;-69
2022/12/19 16:24:18;;;;;;;5.15;4.60;;;5.70;99.90;;;;;;4949923;29;20624;-70
2022/12/19 16:26:51;;;;;;;6.70;6.05;;;5.70;99.90;;;;;;4951382;28;20238;-70
2022/12/19 16:29:20;;;;;;;8.13;5.95;;;5.70;99.90;;;;;;4943251;28;20207;-69
2022/12/19 16:31:47;;;;;;;8.88;6.57;;;5.70;99.90;;;;;;4946960;28;20623;-69
2022/12/19 16:34:16;;;;;;;5.28;3.58;;;5.70;99.90;;;;;;4961731;28;20258;-70
2022/12/19 16:36:43;;;;;;;8.10;7.30;;;5.70;99.90;;;;;;4952320;28;20797;-69
2022/12/19 16:39:10;;;;;;;9.40;6.28;;;5.70;99.90;;;;;;4950302;28;20281;-70
2022/12/19 16:41:37;;;;;;;4.70;4.40;;;5.70;99.90;;;;;;4947733;29;20205;-70
2022/12/19 16:44:15;;;;;;;8.65;5.07;;;5.70;99.90;;;;;;4949785;28;20573;-69
2022/12/19 16:46:42;;;;;;;5.35;4.85;;;5.70;99.90;;;;;;4953291;28;20242;-70
2022/12/19 16:49:14;;;;;;;4.65;4.00;;;5.70;99.90;;;;;;4957823;28;20558;-68
2022/12/19 16:51:41;;;;;;;13.73;7.28;;;5.70;99.90;;;;;;4958177;28;20214;-69
2022/12/19 16:54:08;;;;;;;8.95;7.07;;;5.70;99.90;;;;;;4946636;28;20219;-69
2022/12/19 16:56:38;;;;;;;7.45;4.93;;;5.70;99.90;;;;;;4942298;28;20226;-69
2022/12/19 16:59:14;;;;;;;12.05;6.28;;;5.70;99.90;;;;;;4946304;28;20230;-70
2022/12/19 17:01:42;;;;;;;10.88;4.93;;;5.70;99.90;;;;;;4957591;28;20565;-69
2022/12/19 17:04:13;;;;;;;6.82;5.88;;;5.70;99.90;;;;;;4947697;29;20221;-68
2022/12/19 17:06:40;;;;;;;11.27;10.50;;;5.70;99.90;;;;;;4942606;28;20251;-69
2022/12/19 17:09:08;;;;;;;13.70;7.50;;;5.70;99.90;;;;;;4963142;28;20206;-69
2022/12/19 17:11:36;;;;;;;11.00;8.50;;;5.60;99.90;;;;;;4953282;28;20241;-69
2022/12/19 17:14:08;;;;;;;13.52;10.27;;;5.70;99.90;;;;;;4949622;29;20653;-68
2022/12/19 17:16:35;;;;;;;18.90;9.63;;;5.70;99.90;;;;;;4949572;28;20323;-70
2022/12/19 17:19:02;;;;;;;12.15;8.15;;;5.70;99.90;;;;;;4945216;29;20235;-69
2022/12/19 17:21:29;;;;;;;12.38;7.18;;;5.60;99.90;;;;;;4945113;28;20310;-68
2022/12/19 17:23:56;;;;;;;11.07;7.85;;;5.60;99.90;;;;;;4957291;28;20213;-68
2022/12/19 17:26:23;;;;;;;4.53;4.22;;;5.60;99.90;;;;;;4938008;29;20234;-69
2022/12/19 17:28:50;;;;;;;19.27;10.50;;;5.60;99.90;;;;;;4939410;29;20213;-69
2022/12/19 17:31:23;;;;;;;15.23;8.95;;;5.60;99.90;;;;;;4951569;29;20300;-70
2022/12/19 17:33:50;;;;;;;15.63;8.48;;;5.60;99.90;;;;;;4943540;28;20223;-69
2022/12/19 17:36:16;;;;;;;13.20;7.68;;;5.60;99.90;;;;;;4950761;28;20348;-69
2022/12/19 17:38:43;;;;;;;19.83;10.05;;;5.60;99.90;;;;;;4943533;29;20226;-68
2022/12/19 17:41:15;;;;;;;10.60;7.15;;;5.60;99.90;;;;;;4959935;28;20210;-69
2022/12/19 17:43:42;;;;;;;12.63;6.38;;;5.60;99.90;;;;;;4948698;29;20291;-68
2022/12/19 17:46:18;;;;;;;7.32;5.70;;;5.60;99.90;;;;;;4947876;28;20292;-68
2022/12/19 17:48:49;;;;;;;11.43;8.05;;;5.60;99.90;;;;;;4972617;23;20328;-67
2022/12/19 17:51:17;;;;;;;7.40;5.57;;;5.60;99.90;;;;;;4955791;28;20625;-67
2022/12/19 17:53:44;;;;;;;8.35;6.68;;;5.60;99.90;;;;;;4962493;28;20209;-67
2022/12/19 17:56:13;;;;;;;9.98;6.90;;;5.60;99.90;;;;;;4963988;28;20267;-66
2022/12/19 17:58:40;;;;;;;9.32;6.00;;;5.60;99.90;;;;;;4953278;28;20237;-67
2022/12/19 18:01:19;;;;;;;11.75;6.05;;;5.60;99.90;;;;;;4960644;28;20207;-66
2022/12/19 18:03:47;;;;;;;24.17;6.85;;;5.60;99.90;;;;;;4955085;28;20206;-67
2022/12/19 18:06:15;;;;;;;7.15;5.88;;;5.60;99.90;;;;;;4948874;28;20735;-66
2022/12/19 18:08:42;;;;;;;11.40;9.77;;;5.60;99.90;;;;;;4942346;28;20235;-66
2022/12/19 18:11:17;;;;;;;14.73;7.45;;;5.60;99.90;;;;;;4945931;29;20305;-66
2022/12/19 18:13:43;;;;;;;7.50;6.78;;;5.60;99.90;;;;;;4941343;29;20218;-66
2022/12/19 18:16:13;;;;;;;4.78;4.43;;;5.60;99.90;;;;;;4935348;29;20340;-67
2022/12/19 18:18:41;;;;;;;7.55;6.75;;;5.60;99.90;;;;;;4950992;28;20324;-67
2022/12/19 18:21:12;;;;;;;14.00;7.15;;;5.60;99.90;;;;;;4946244;29;20221;-66
2022/12/19 18:23:38;;;;;;;8.45;7.47;;;5.50;99.90;;;;;;4945733;28;20580;-67
2022/12/19 18:26:05;;;;;;;6.80;6.20;;;5.50;99.90;;;;;;4957951;28;20214;-67
2022/12/19 18:28:32;;;;;;;6.68;5.95;;;5.50;99.90;;;;;;4951348;28;20217;-67
2022/12/19 18:31:02;;;;;;;9.60;7.90;;;5.50;99.90;;;;;;4952309;28;20236;-68